createdAt,value
2019-03-05T00:01:18.524Z,8.28
2019-03-05T00:03:48.168Z,8.28
2019-03-05T00:06:17.475Z,8.16
2019-03-05T00:08:47.233Z,8.10
2019-03-05T00:11:16.518Z,7.76
2019-03-05T00:13:46.021Z,8.08
2019-03-05T00:16:15.388Z,7.93
2019-03-05T00:18:44.818Z,7.96
2019-03-05T00:21:14.425Z,7.99
2019-03-05T00:23:46.478Z,8.01
2019-03-05T00:26:18.318Z,8.04
2019-03-05T00:29:05.649Z,8.04
2019-03-05T00:31:38.000Z,8.05
2019-03-05T00:34:29.540Z,8.05
2019-03-05T00:37:07.436Z,8.08
2019-03-05T00:39:45.387Z,8.06
2019-03-05T00:42:43.358Z,8.03
2019-03-05T00:45:32.447Z,8.17
2019-03-05T00:48:22.665Z,8.07
2019-03-05T00:51:24.950Z,8.07
2019-03-05T00:57:13.419Z,7.99
2019-03-05T01:00:00.651Z,7.89
2019-03-05T01:02:48.108Z,7.41
2019-03-05T01:05:41.781Z,6.70
2019-03-05T01:08:11.164Z,6.70
2019-03-05T01:10:40.497Z,6.24
2019-03-05T01:13:10.070Z,5.84
2019-03-05T01:15:39.405Z,5.64
2019-03-05T01:18:09.166Z,5.34
2019-03-05T01:20:38.574Z,5.37
2019-03-05T01:23:08.332Z,5.31
2019-03-05T01:25:37.605Z,5.29
2019-03-05T01:28:06.982Z,5.33
2019-03-05T01:30:57.010Z,5.34
2019-03-05T01:33:28.102Z,5.40
2019-03-05T01:36:04.939Z,5.59
2019-03-05T01:38:35.874Z,5.36
2019-03-05T01:41:07.193Z,5.37
2019-03-05T01:43:36.789Z,5.44
2019-03-05T01:46:06.524Z,5.36
2019-03-05T01:48:35.801Z,5.26
2019-03-05T01:51:05.177Z,5.41
2019-03-05T01:53:34.464Z,5.40
2019-03-05T01:56:03.904Z,5.48
2019-03-05T01:58:33.174Z,5.33
2019-03-05T02:01:02.813Z,5.54
2019-03-05T02:03:32.391Z,5.38
2019-03-05T02:06:01.828Z,5.40
2019-03-05T02:08:31.393Z,5.27
2019-03-05T02:11:01.223Z,5.16
2019-03-05T02:13:30.513Z,5.18
2019-03-05T02:16:00.420Z,5.14
2019-03-05T02:18:29.713Z,5.24
2019-03-05T02:20:58.991Z,4.90
2019-03-05T02:23:34.566Z,4.88
2019-03-05T02:26:12.836Z,4.84
2019-03-05T02:28:59.882Z,4.80
2019-03-05T02:31:48.762Z,4.79
2019-03-05T02:34:27.009Z,4.74
2019-03-05T02:37:15.668Z,4.72
2019-03-05T02:40:02.965Z,4.77
2019-03-05T02:42:40.403Z,4.68
2019-03-05T02:45:21.724Z,4.67
2019-03-05T02:48:26.142Z,4.68
2019-03-05T02:51:04.208Z,4.63
2019-03-05T02:54:06.787Z,4.59
2019-03-05T02:56:41.952Z,4.73
2019-03-05T02:59:10.102Z,4.85
2019-03-05T03:01:43.446Z,4.96
2019-03-05T03:04:20.177Z,4.92
2019-03-05T03:06:50.196Z,5.05
2019-03-05T03:09:31.383Z,4.96
2019-03-05T03:12:01.003Z,5.02
2019-03-05T03:14:30.312Z,5.09
2019-03-05T03:16:59.604Z,5.13
2019-03-05T03:19:29.190Z,5.04
2019-03-05T03:21:58.499Z,5.28
2019-03-05T03:24:27.783Z,5.41
2019-03-05T03:26:57.188Z,5.37
2019-03-05T03:29:26.451Z,5.51
2019-03-05T03:31:55.755Z,5.53
2019-03-05T03:34:25.070Z,5.48
2019-03-05T03:36:54.511Z,5.36
2019-03-05T03:39:23.894Z,5.30
2019-03-05T03:41:53.229Z,5.23
2019-03-05T03:44:22.518Z,5.17
2019-03-05T03:46:51.815Z,5.25
2019-03-05T03:49:21.082Z,5.21
2019-03-05T03:51:51.475Z,5.19
2019-03-05T03:54:21.189Z,5.22
2019-03-05T03:56:50.854Z,5.24
2019-03-05T03:59:20.241Z,5.40
2019-03-05T04:01:49.581Z,5.37
2019-03-05T04:04:18.877Z,5.34
2019-03-05T04:06:48.224Z,5.35
2019-03-05T04:09:17.538Z,5.41
2019-03-05T04:11:46.806Z,5.47
2019-03-05T04:14:16.202Z,5.48
2019-03-05T04:16:45.478Z,5.52
2019-03-05T04:19:16.554Z,5.51
2019-03-05T04:21:45.835Z,5.42
2019-03-05T04:24:15.297Z,5.47
2019-03-05T04:26:44.558Z,5.36
2019-03-05T04:29:13.875Z,5.43
2019-03-05T04:31:43.155Z,5.47
2019-03-05T04:34:12.454Z,5.41
2019-03-05T04:36:41.969Z,5.37
2019-03-05T04:39:12.335Z,5.41
2019-03-05T04:41:41.626Z,5.43
2019-03-05T04:44:10.921Z,5.44
2019-03-05T04:46:40.569Z,5.63
2019-03-05T04:49:14.599Z,5.56
2019-03-05T04:51:47.937Z,5.56
2019-03-05T04:54:17.238Z,5.54
2019-03-05T04:56:46.547Z,5.60
2019-03-05T04:59:15.963Z,5.56
2019-03-05T05:01:45.266Z,5.55
2019-03-05T05:04:14.537Z,5.60
2019-03-05T05:06:43.828Z,5.57
2019-03-05T05:09:13.661Z,5.59
2019-03-05T05:11:42.969Z,5.59
2019-03-05T05:14:12.386Z,5.66
2019-03-05T05:16:41.667Z,5.70
2019-03-05T05:19:11.297Z,5.79
2019-03-05T05:21:40.571Z,5.73
2019-03-05T05:24:09.877Z,5.80
2019-03-05T05:26:39.235Z,5.81
2019-03-05T05:29:08.529Z,5.91
2019-03-05T05:31:37.879Z,6.02
2019-03-05T05:34:07.179Z,6.08
2019-03-05T05:36:36.477Z,6.09
2019-03-05T05:39:09.139Z,6.09
2019-03-05T05:41:38.449Z,6.08
2019-03-05T05:44:07.712Z,6.15
2019-03-05T05:46:37.356Z,6.15
2019-03-05T05:49:06.636Z,6.25
2019-03-05T05:51:35.956Z,6.25
2019-03-05T05:54:05.582Z,6.19
2019-03-05T05:56:34.879Z,6.19
2019-03-05T05:59:04.289Z,6.14
2019-03-05T06:01:34.012Z,6.10
2019-03-05T06:04:03.277Z,6.05
2019-03-05T06:06:32.586Z,6.04
2019-03-05T06:09:01.866Z,6.06
2019-03-05T06:11:31.173Z,6.07
2019-03-05T06:14:00.433Z,6.08
2019-03-05T06:16:29.729Z,6.12
2019-03-05T06:18:59.026Z,6.09
2019-03-05T06:21:28.555Z,6.11
2019-03-05T06:23:57.849Z,6.14
2019-03-05T06:26:27.393Z,6.13
2019-03-05T06:28:56.702Z,6.32
2019-03-05T06:31:26.002Z,6.36
2019-03-05T06:33:55.284Z,6.47
2019-03-05T06:36:24.601Z,6.53
2019-03-05T06:38:54.120Z,6.64
2019-03-05T06:41:23.750Z,6.66
2019-03-05T06:43:53.096Z,6.72
2019-03-05T06:46:22.397Z,6.73
2019-03-05T06:48:51.666Z,6.73
2019-03-05T06:51:21.654Z,6.72
2019-03-05T06:53:50.968Z,6.60
2019-03-05T06:56:20.528Z,6.52
2019-03-05T06:58:49.830Z,6.52
2019-03-05T07:01:19.328Z,6.54
2019-03-05T07:03:48.715Z,6.54
2019-03-05T07:06:52.531Z,6.70
2019-03-05T07:09:27.922Z,6.70
2019-03-05T07:12:12.205Z,6.63
2019-03-05T07:14:59.901Z,6.63
2019-03-05T07:17:34.797Z,6.24
2019-03-05T07:20:23.799Z,6.24
2019-03-05T07:23:01.857Z,6.35
2019-03-05T07:25:31.563Z,6.57
2019-03-05T07:28:01.031Z,6.70
2019-03-05T07:30:30.376Z,6.70
2019-03-05T07:32:59.793Z,6.45
2019-03-05T07:35:30.526Z,6.67
2019-03-05T07:37:59.975Z,6.55
2019-03-05T07:40:31.057Z,6.34
2019-03-05T07:43:00.459Z,6.32
2019-03-05T07:45:32.534Z,6.39
2019-03-05T07:48:01.855Z,6.39
2019-03-05T07:50:31.131Z,6.11
2019-03-05T07:53:00.442Z,6.36
2019-03-05T07:55:29.746Z,6.50
2019-03-05T07:57:59.047Z,6.33
2019-03-05T08:00:28.579Z,6.48
2019-03-05T08:02:57.848Z,6.61
2019-03-05T08:05:27.826Z,6.70
2019-03-05T08:07:58.625Z,6.78
2019-03-05T08:10:30.525Z,6.81
2019-03-05T08:13:11.926Z,6.81
2019-03-05T08:15:48.639Z,6.89
2019-03-05T08:18:17.930Z,7.01
2019-03-05T08:20:47.304Z,7.01
2019-03-05T08:23:16.588Z,7.06
2019-03-05T08:25:45.907Z,6.93
2019-03-05T08:28:15.642Z,7.05
2019-03-05T08:30:45.223Z,6.95
2019-03-05T08:33:14.609Z,7.14
2019-03-05T08:35:44.753Z,7.06
2019-03-05T08:38:14.048Z,7.06
2019-03-05T08:40:43.448Z,7.10
2019-03-05T08:43:12.750Z,7.10
2019-03-05T08:45:42.053Z,7.10
2019-03-05T08:48:11.362Z,7.04
2019-03-05T08:50:40.683Z,7.08
2019-03-05T08:53:09.975Z,7.21
2019-03-05T08:55:39.251Z,7.18
2019-03-05T08:58:08.549Z,7.26
2019-03-05T09:00:37.890Z,7.26
2019-03-05T09:03:07.363Z,7.27
2019-03-05T09:05:36.995Z,7.39
2019-03-05T09:08:06.822Z,7.29
2019-03-05T09:10:36.452Z,7.54
2019-03-05T09:13:07.618Z,7.54
2019-03-05T09:15:37.140Z,7.62
2019-03-05T09:18:06.939Z,7.58
2019-03-05T09:20:36.740Z,7.57
2019-03-05T09:23:06.406Z,7.46
2019-03-05T09:38:27.842Z,7.58
2019-03-05T09:40:57.654Z,7.65
2019-03-05T09:43:27.201Z,7.61
2019-03-05T09:45:57.190Z,7.46
2019-03-05T09:48:26.627Z,7.65
2019-03-05T09:50:56.073Z,7.67
2019-03-05T09:53:25.338Z,7.73
2019-03-05T09:55:55.138Z,7.73
2019-03-05T09:58:24.405Z,7.77
2019-03-05T10:00:53.771Z,7.94
2019-03-05T10:03:23.078Z,8.00
2019-03-05T10:05:52.335Z,7.97
2019-03-05T10:08:31.906Z,7.89
2019-03-05T10:10:52.762Z,7.89
2019-03-05T10:13:22.123Z,7.92
2019-03-05T10:15:53.389Z,7.97
2019-03-05T10:18:22.447Z,8.02
2019-03-05T10:20:51.762Z,7.90
2019-03-05T10:23:21.396Z,8.14
2019-03-05T10:25:50.981Z,8.23
2019-03-05T10:28:20.415Z,8.19
2019-03-05T10:30:49.695Z,8.20
2019-03-05T10:33:19.366Z,7.88
2019-03-05T10:35:48.861Z,7.92
2019-03-05T10:38:18.238Z,7.89
2019-03-05T10:40:50.812Z,7.94
2019-03-05T10:43:20.398Z,7.84
2019-03-05T10:45:50.142Z,7.84
2019-03-05T10:48:24.216Z,7.72
2019-03-05T10:50:53.561Z,7.72
2019-03-05T10:53:23.017Z,7.82
2019-03-05T10:55:52.582Z,7.80
2019-03-05T10:58:32.731Z,7.74
2019-03-05T11:00:56.629Z,7.80
2019-03-05T11:03:28.988Z,8.00
2019-03-05T11:05:58.505Z,8.15
2019-03-05T11:08:28.015Z,8.24
2019-03-05T11:10:57.747Z,8.48
2019-03-05T11:13:27.124Z,8.43
2019-03-05T11:16:01.152Z,8.46
2019-03-05T11:18:30.599Z,8.55
2019-03-05T11:20:59.944Z,8.60
2019-03-05T11:23:29.319Z,9.14
2019-03-05T11:25:58.580Z,9.14
2019-03-05T11:28:27.874Z,9.06
2019-03-05T11:30:57.259Z,9.06
2019-03-05T11:33:26.553Z,9.18
2019-03-05T11:35:55.825Z,9.25
2019-03-05T11:38:25.227Z,9.60
2019-03-05T11:40:54.637Z,9.77
2019-03-05T11:43:24.134Z,9.38
2019-03-05T11:45:53.461Z,9.85
2019-03-05T11:48:22.785Z,9.69
2019-03-05T11:50:52.126Z,9.69
2019-03-05T11:53:21.431Z,9.66
2019-03-05T11:55:50.807Z,9.53
2019-03-05T11:58:20.112Z,9.53
2019-03-05T12:00:53.964Z,9.50
2019-03-05T12:03:23.252Z,9.31
2019-03-05T12:05:52.547Z,9.34
2019-03-05T12:08:21.846Z,9.33
2019-03-05T12:10:51.205Z,9.36
2019-03-05T12:13:20.849Z,9.21
2019-03-05T12:15:50.149Z,9.11
2019-03-05T12:18:19.854Z,9.22
2019-03-05T12:20:49.368Z,9.19
2019-03-05T12:23:18.660Z,9.30
2019-03-05T12:25:48.307Z,9.24
2019-03-05T12:28:17.713Z,9.33
2019-03-05T12:30:47.125Z,9.37
2019-03-05T12:33:16.498Z,9.47
2019-03-05T12:35:45.863Z,9.62
2019-03-05T12:38:15.221Z,9.55
2019-03-05T12:40:44.518Z,9.53
2019-03-05T12:43:13.838Z,9.41
2019-03-05T12:45:43.441Z,9.26
2019-03-05T12:48:12.806Z,9.26
2019-03-05T12:50:42.484Z,9.41
2019-03-05T12:53:11.897Z,9.17
2019-03-05T12:55:41.481Z,8.91
2019-03-05T12:58:10.877Z,8.92
2019-03-05T13:00:40.324Z,8.92
2019-03-05T13:03:09.879Z,8.91
2019-03-05T13:05:39.251Z,8.86
2019-03-05T13:08:08.720Z,8.59
2019-03-05T13:10:38.085Z,10.38
2019-03-05T13:13:10.427Z,10.38
2019-03-05T13:15:40.718Z,12.29
2019-03-05T13:18:10.104Z,13.76
2019-03-05T13:20:39.475Z,14.97
2019-03-05T13:23:10.490Z,14.47
2019-03-05T13:25:40.211Z,14.69
2019-03-05T13:28:09.980Z,13.68
2019-03-05T13:30:40.472Z,13.17
2019-03-05T13:33:10.215Z,12.15
2019-03-05T13:35:39.791Z,11.73
2019-03-05T13:38:12.848Z,11.23
2019-03-05T13:40:42.313Z,11.35
2019-03-05T13:43:11.621Z,11.28
2019-03-05T13:45:49.117Z,11.26
2019-03-05T13:48:31.046Z,11.01
2019-03-05T13:51:23.091Z,11.13
2019-03-05T13:54:05.443Z,11.32
2019-03-05T13:56:50.547Z,11.38
2019-03-05T13:59:38.203Z,11.92
2019-03-05T14:02:08.961Z,11.85
2019-03-05T14:05:05.020Z,11.27
2019-03-05T14:08:09.286Z,10.85
2019-03-05T14:10:38.708Z,11.05
2019-03-05T14:13:08.048Z,11.00
2019-03-05T14:15:38.221Z,10.73
2019-03-05T14:18:07.584Z,10.69
2019-03-05T14:20:37.094Z,10.66
2019-03-05T14:23:06.528Z,10.77
2019-03-05T14:25:35.954Z,10.65
2019-03-05T14:28:05.410Z,10.40
2019-03-05T14:30:34.936Z,10.77
2019-03-05T14:33:04.516Z,10.66
2019-03-05T14:35:34.256Z,10.59
2019-03-05T14:38:04.244Z,10.40
2019-03-05T14:40:34.289Z,10.16
2019-03-05T14:43:05.702Z,10.33
2019-03-05T14:45:35.510Z,10.38
2019-03-05T14:48:05.587Z,10.09
2019-03-05T14:50:35.711Z,10.26
2019-03-05T14:53:05.200Z,9.84
2019-03-05T14:55:34.445Z,9.77
2019-03-05T14:58:04.228Z,9.69
2019-03-05T15:00:33.797Z,10.00
2019-03-05T15:03:03.291Z,9.87
2019-03-05T15:05:32.646Z,10.02
2019-03-05T15:08:01.964Z,9.79
2019-03-05T15:10:31.627Z,9.62
2019-03-05T15:13:01.175Z,9.82
2019-03-05T15:15:32.270Z,9.84
2019-03-05T15:18:01.802Z,9.72
2019-03-05T15:20:31.621Z,9.60
2019-03-05T15:23:00.995Z,9.90
2019-03-05T15:25:30.779Z,10.16
2019-03-05T15:28:00.206Z,10.31
2019-03-05T15:30:29.856Z,10.29
2019-03-05T15:32:59.294Z,10.27
2019-03-05T15:35:28.663Z,10.19
2019-03-05T15:37:57.971Z,10.16
2019-03-05T15:40:27.273Z,10.12
2019-03-05T15:42:56.624Z,10.15
2019-03-05T15:45:25.927Z,9.77
2019-03-05T15:47:55.234Z,9.89
2019-03-05T15:50:27.078Z,9.62
2019-03-05T15:52:56.316Z,9.57
2019-03-05T15:55:26.543Z,9.86
2019-03-05T15:57:55.861Z,9.65
2019-03-05T16:00:31.580Z,9.60
2019-03-05T16:03:01.927Z,9.40
2019-03-05T16:05:31.745Z,9.66
2019-03-05T16:08:01.575Z,9.77
2019-03-05T16:10:31.092Z,9.75
2019-03-05T16:13:00.376Z,9.73
2019-03-05T16:15:29.671Z,9.71
2019-03-05T16:18:01.332Z,9.68
2019-03-05T16:20:30.259Z,9.65
2019-03-05T16:22:59.743Z,9.77
2019-03-05T16:25:29.119Z,9.72
2019-03-05T16:28:02.303Z,9.80
2019-03-05T16:30:45.025Z,9.88
2019-03-05T16:33:18.722Z,9.78
2019-03-05T16:36:04.768Z,9.87
2019-03-05T16:38:51.185Z,9.96
2019-03-05T16:41:23.476Z,9.81
2019-03-05T16:44:06.535Z,9.62
2019-03-05T16:46:40.345Z,9.62
2019-03-05T16:49:11.319Z,9.58
2019-03-05T16:51:45.387Z,9.61
2019-03-05T16:54:19.053Z,9.60
2019-03-05T16:56:55.961Z,9.52
2019-03-05T16:59:26.926Z,9.54
2019-03-05T17:02:04.002Z,9.54
2019-03-05T17:04:40.592Z,9.49
2019-03-05T17:07:11.844Z,9.35
2019-03-05T17:09:55.686Z,9.43
2019-03-05T17:12:24.966Z,9.43
2019-03-05T17:14:54.285Z,9.37
2019-03-05T17:17:23.572Z,9.22
2019-03-05T17:19:52.901Z,9.45
2019-03-05T17:22:22.174Z,9.31
2019-03-05T17:24:51.472Z,9.11
2019-03-05T17:27:20.765Z,8.98
2019-03-05T17:29:50.060Z,8.87
2019-03-05T17:32:19.491Z,8.75
2019-03-05T17:34:49.173Z,8.98
2019-03-05T17:37:18.469Z,8.72
2019-03-05T17:39:47.753Z,8.52
2019-03-05T17:42:17.127Z,8.53
2019-03-05T17:44:46.447Z,8.49
2019-03-05T17:47:15.729Z,8.45
2019-03-05T17:49:45.028Z,8.33
2019-03-05T17:52:14.302Z,8.28
2019-03-05T17:54:43.673Z,8.31
2019-03-05T17:57:13.226Z,8.24
2019-03-05T17:59:42.599Z,8.15
2019-03-05T18:02:12.047Z,8.13
2019-03-05T18:04:41.382Z,8.18
2019-03-05T18:07:10.765Z,8.16
2019-03-05T18:09:40.117Z,8.24
2019-03-05T18:12:09.498Z,8.32
2019-03-05T18:14:38.802Z,8.49
2019-03-05T18:17:08.928Z,8.52
2019-03-05T18:19:38.505Z,8.42
2019-03-05T18:22:07.897Z,8.29
2019-03-05T18:24:37.164Z,8.30
2019-03-05T18:27:06.617Z,8.26
2019-03-05T18:29:36.206Z,8.24
2019-03-05T18:32:05.488Z,8.11
2019-03-05T18:34:34.835Z,8.19
2019-03-05T18:37:04.221Z,8.07
2019-03-05T18:39:33.521Z,8.07
2019-03-05T18:42:03.027Z,8.02
2019-03-05T18:44:32.311Z,7.90
2019-03-05T18:47:01.685Z,8.02
2019-03-05T18:49:30.965Z,8.06
2019-03-05T18:52:00.546Z,7.93
2019-03-05T18:54:29.852Z,8.06
2019-03-05T18:56:59.163Z,8.02
2019-03-05T18:59:28.422Z,7.99
2019-03-05T19:01:57.729Z,7.90
2019-03-05T19:04:27.022Z,7.90
2019-03-05T19:06:56.316Z,7.95
2019-03-05T19:09:25.616Z,7.94
2019-03-05T19:11:54.989Z,7.91
2019-03-05T19:14:24.283Z,7.90
2019-03-05T19:16:53.986Z,7.90
2019-03-05T19:19:23.286Z,7.89
2019-03-05T19:21:52.661Z,7.76
2019-03-05T19:24:21.944Z,7.77
2019-03-05T19:26:51.251Z,7.76
2019-03-05T19:29:21.048Z,7.76
2019-03-05T19:31:50.363Z,7.76
2019-03-05T19:34:19.774Z,7.60
2019-03-05T19:36:49.132Z,7.53
2019-03-05T19:39:18.438Z,7.48
2019-03-05T19:41:55.842Z,7.48
2019-03-05T19:44:19.195Z,7.42
2019-03-05T19:46:48.658Z,7.42
2019-03-05T19:49:17.941Z,7.44
2019-03-05T19:51:47.314Z,7.37
2019-03-05T19:54:16.637Z,7.37
2019-03-05T19:56:45.925Z,7.27
2019-03-05T19:59:15.224Z,7.27
2019-03-05T20:01:44.658Z,7.19
2019-03-05T20:04:14.715Z,7.26
2019-03-05T20:06:44.258Z,7.21
2019-03-05T20:09:16.624Z,7.21
2019-03-05T20:11:45.946Z,7.25
2019-03-05T20:14:15.309Z,7.21
2019-03-05T20:16:44.696Z,7.19
2019-03-05T20:19:13.977Z,7.16
2019-03-05T20:21:46.053Z,7.19
2019-03-05T20:24:17.147Z,7.11
2019-03-05T20:26:46.495Z,7.24
2019-03-05T20:29:15.776Z,7.24
2019-03-05T20:31:45.079Z,7.25
2019-03-05T20:34:14.400Z,7.22
2019-03-05T20:36:43.767Z,7.22
2019-03-05T20:39:13.164Z,7.20
2019-03-05T20:41:42.865Z,7.29
2019-03-05T20:44:12.169Z,7.29
2019-03-05T20:46:41.448Z,7.26
2019-03-05T20:49:10.747Z,7.28
2019-03-05T20:51:40.235Z,7.26
2019-03-05T20:54:09.588Z,7.29
2019-03-05T20:56:40.563Z,7.26
2019-03-05T20:59:10.258Z,7.26
2019-03-05T21:01:39.589Z,7.31
2019-03-05T21:04:08.986Z,7.26
2019-03-05T21:06:38.277Z,7.33
2019-03-05T21:09:10.650Z,7.33
2019-03-05T21:11:39.937Z,7.39
2019-03-05T21:14:09.281Z,7.42
2019-03-05T21:16:38.552Z,7.48
2019-03-05T21:19:07.855Z,7.38
2019-03-05T21:21:37.159Z,7.45
2019-03-05T21:24:06.527Z,7.51
2019-03-05T21:26:35.843Z,7.52
2019-03-05T21:29:05.190Z,7.53
2019-03-05T21:31:34.808Z,7.56
2019-03-05T21:34:04.218Z,7.56
2019-03-05T21:36:33.523Z,7.51
2019-03-05T21:39:04.338Z,7.52
2019-03-05T21:41:33.647Z,7.52
2019-03-05T21:44:03.190Z,7.52
2019-03-05T21:46:32.700Z,7.52
2019-03-05T21:49:02.146Z,7.54
2019-03-05T21:51:31.909Z,7.56
2019-03-05T21:54:01.519Z,7.56
2019-03-05T21:56:31.409Z,7.50
2019-03-05T21:59:00.797Z,7.54
2019-03-05T22:01:32.390Z,7.61
2019-03-05T22:04:02.833Z,7.61
2019-03-05T22:06:32.314Z,7.63
2019-03-05T22:09:01.987Z,7.59
2019-03-05T22:11:31.951Z,7.55
2019-03-05T22:14:01.393Z,7.55
2019-03-05T22:16:31.315Z,7.60
2019-03-05T22:19:00.826Z,7.63
2019-03-05T22:21:30.265Z,7.72
2019-03-05T22:23:59.557Z,7.72
2019-03-05T22:26:28.949Z,7.65
2019-03-05T22:28:58.339Z,7.78
2019-03-05T22:31:27.730Z,7.48
2019-03-05T22:33:57.210Z,7.18
2019-03-05T22:36:26.567Z,7.18
2019-03-05T22:38:55.855Z,7.04
2019-03-05T22:41:25.360Z,7.07
2019-03-05T22:43:54.890Z,7.07
2019-03-05T22:46:24.206Z,7.00
2019-03-05T22:48:53.547Z,6.78
2019-03-05T22:51:22.876Z,6.78
2019-03-05T22:53:52.496Z,6.93
2019-03-05T22:56:22.336Z,7.06
2019-03-05T22:58:51.736Z,7.06
2019-03-05T23:01:24.908Z,7.06
2019-03-05T23:03:54.513Z,7.05
2019-03-05T23:06:24.741Z,7.14
2019-03-05T23:08:54.589Z,7.04
2019-03-05T23:11:24.184Z,6.98
2019-03-05T23:13:54.668Z,6.98
2019-03-05T23:16:24.216Z,7.06
2019-03-05T23:18:53.608Z,7.17
2019-03-05T23:21:23.036Z,7.37
2019-03-05T23:23:52.813Z,7.37
2019-03-05T23:26:22.531Z,7.41
2019-03-05T23:28:52.260Z,7.34
2019-03-05T23:31:21.895Z,7.25
2019-03-05T23:33:51.697Z,7.37
2019-03-05T23:36:21.577Z,7.39
2019-03-05T23:38:50.892Z,7.39
2019-03-05T23:41:20.304Z,7.32
2019-03-05T23:43:49.688Z,7.32
2019-03-05T23:46:19.136Z,7.32
2019-03-05T23:48:48.957Z,7.37
2019-03-05T23:51:18.259Z,7.37
2019-03-05T23:53:47.549Z,7.42
2019-03-05T23:56:17.215Z,7.49
2019-03-05T23:58:46.520Z,7.49
